Time;durP1;ratioP1;P1;durP2;ratioP2;P2;SDS_P1;SDS_P2;PMS_P1;PMS_P2;Temp;Humidity;BMP_temperature;BMP_pressure;BME280_temperature;BME280_humidity;BME280_pressure;Samples;Min_cycle;Max_cycle;Signal;HPM_P1;HPM_P2
2023/10/23 08:04:59;;;;;;;4.93;3.30;;;;;;;;;;6208261;23;20012;-93
2023/10/23 08:07:24;;;;;;;6.60;3.42;;;;;;;;;;6226143;23;20023;-91
2023/10/23 08:09:50;;;;;;;3.33;3.00;;;;;;;;;;6228264;23;20008;-93
2023/10/23 08:12:15;;;;;;;4.07;3.40;;;;;;;;;;6227300;23;20034;-91
2023/10/23 08:14:41;;;;;;;3.42;2.97;;;;;;;;;;6252019;23;20023;-89
2023/10/23 08:17:07;;;;;;;3.88;3.15;;;;;;;;;;6251468;23;20142;-94
2023/10/23 08:19:32;;;;;;;3.50;3.13;;;;;;;;;;6223231;23;20081;-93
2023/10/23 08:21:58;;;;;;;5.85;3.00;;;;;;;;;;6224735;23;20004;-92
2023/10/23 08:24:23;;;;;;;4.07;2.83;;;;;;;;;;6223664;23;20387;-91
2023/10/23 08:26:49;;;;;;;9.85;2.90;;;;;;;;;;6221077;23;20010;-92
2023/10/23 08:29:15;;;;;;;5.63;3.05;;;;;;;;;;6220763;23;20003;-92
2023/10/23 08:31:40;;;;;;;4.90;2.90;;;;;;;;;;6220881;23;20015;-92
2023/10/23 08:34:07;;;;;;;3.22;2.53;;;;;;;;;;6221012;23;20008;-91
2023/10/23 08:36:32;;;;;;;3.78;2.30;;;;;;;;;;6226015;23;20046;-93
2023/10/23 08:38:59;;;;;;;4.22;2.40;;;;;;;;;;6231486;23;20011;-93
2023/10/23 08:41:25;;;;;;;4.88;2.25;;;;;;;;;;6230163;23;20136;-91
2023/10/23 08:43:51;;;;;;;4.18;2.22;;;;;;;;;;6228593;23;20026;-93
2023/10/23 08:46:16;;;;;;;3.97;2.65;;;;;;;;;;6202986;23;20423;-94
2023/10/23 08:48:42;;;;;;;4.28;2.78;;;;;;;;;;6232883;23;20069;-92
2023/10/23 08:51:08;;;;;;;6.22;2.90;;;;;;;;;;6225427;23;20012;-93
2023/10/23 08:53:47;;;;;;;5.47;2.70;;;;;;;;;;6225924;23;20447;-93
2023/10/23 08:56:13;;;;;;;4.57;2.58;;;;;;;;;;6202609;23;20015;-94
2023/10/23 08:58:43;;;;;;;3.03;2.35;;;;;;;;;;6227671;23;20004;-94
2023/10/23 09:01:08;;;;;;;3.78;2.65;;;;;;;;;;6225331;23;20020;-93
2023/10/23 09:03:34;;;;;;;3.58;2.47;;;;;;;;;;6250379;23;20000;-94
2023/10/23 09:05:59;;;;;;;4.88;2.60;;;;;;;;;;6222358;23;20063;-94
2023/10/23 09:08:28;;;;;;;5.47;2.60;;;;;;;;;;6230043;23;20015;-94
2023/10/23 09:11:06;;;;;;;4.03;2.45;;;;;;;;;;6223107;23;20000;-93
2023/10/23 09:13:37;;;;;;;4.43;2.22;;;;;;;;;;6223454;23;20000;-94
2023/10/23 09:16:06;;;;;;;3.42;2.90;;;;;;;;;;6249856;23;20007;-94
2023/10/23 09:18:55;;;;;;;2.85;2.55;;;;;;;;;;6224222;23;20011;-95
2023/10/23 09:21:20;;;;;;;4.47;2.53;;;;;;;;;;6226375;23;19985;-92
2023/10/23 09:23:54;;;;;;;3.85;2.40;;;;;;;;;;6254231;23;20042;-96
2023/10/23 09:26:24;;;;;;;4.03;2.65;;;;;;;;;;6228770;23;20049;-93
2023/10/23 09:28:52;;;;;;;3.38;2.60;;;;;;;;;;6249858;23;20045;-94
2023/10/23 09:31:18;;;;;;;5.55;3.00;;;;;;;;;;6223239;23;20067;-94
2023/10/23 09:33:45;;;;;;;3.80;2.30;;;;;;;;;;6250295;23;19996;-95
2023/10/23 09:36:11;;;;;;;4.45;2.50;;;;;;;;;;6223095;23;20008;-94
2023/10/23 09:38:42;;;;;;;3.10;2.15;;;;;;;;;;6234044;23;20001;-91
2023/10/23 09:41:30;;;;;;;4.85;2.75;;;;;;;;;;6237099;23;20177;-91
2023/10/23 09:44:00;;;;;;;5.60;2.60;;;;;;;;;;6241072;23;20035;-96
2023/10/23 09:46:57;;;;;;;3.22;2.50;;;;;;;;;;6218180;22;19995;-95
2023/10/23 09:49:23;;;;;;;6.00;2.45;;;;;;;;;;6200147;23;20013;-93
2023/10/23 09:52:13;;;;;;;3.72;2.15;;;;;;;;;;6210178;22;20031;-96
2023/10/23 09:54:42;;;;;;;3.60;3.28;;;;;;;;;;6221551;23;20342;-96
2023/10/23 09:57:11;;;;;;;2.50;2.20;;;;;;;;;;6197358;23;20004;-95
2023/10/23 09:59:49;;;;;;;3.20;2.35;;;;;;;;;;6223362;23;20058;-96
2023/10/23 10:02:17;;;;;;;3.10;2.40;;;;;;;;;;6223155;23;20024;-95
2023/10/23 10:04:55;;;;;;;3.90;2.42;;;;;;;;;;6223653;23;20011;-94
2023/10/23 10:07:48;;;;;;;3.33;2.35;;;;;;;;;;6200206;23;20004;-94
2023/10/23 10:10:14;;;;;;;4.30;2.28;;;;;;;;;;6225110;23;20430;-96
2023/10/23 10:12:41;;;;;;;3.22;2.33;;;;;;;;;;6222905;23;20011;-93
2023/10/23 10:15:10;;;;;;;2.97;2.13;;;;;;;;;;6224597;23;20438;-95
2023/10/23 10:17:39;;;;;;;3.40;2.08;;;;;;;;;;6250221;23;20000;-90
2023/10/23 10:20:08;;;;;;;2.97;2.05;;;;;;;;;;6221833;23;20008;-91
2023/10/23 10:22:36;;;;;;;5.20;2.25;;;;;;;;;;6222702;23;20347;-96
2023/10/23 10:25:04;;;;;;;3.95;2.05;;;;;;;;;;6217100;23;20064;-96
2023/10/23 10:30:06;;;;;;;3.63;2.25;;;;;;;;;;6253620;22;20505;-95
2023/10/23 10:32:35;;;;;;;3.13;2.20;;;;;;;;;;6253138;23;20008;-94
2023/10/23 10:35:03;;;;;;;2.90;2.05;;;;;;;;;;6249367;23;20008;-93
2023/10/23 10:37:30;;;;;;;2.88;2.00;;;;;;;;;;6248812;23;20004;-94
2023/10/23 10:39:57;;;;;;;5.30;2.30;;;;;;;;;;6251130;23;20066;-96
2023/10/23 10:42:24;;;;;;;6.25;2.10;;;;;;;;;;6252140;23;20027;-95
2023/10/23 10:45:00;;;;;;;4.47;2.15;;;;;;;;;;6249448;23;20335;-94
2023/10/23 10:47:39;;;;;;;4.85;2.33;;;;;;;;;;6252056;23;20091;-95
2023/10/23 10:50:05;;;;;;;3.45;2.33;;;;;;;;;;6250359;23;20423;-93
2023/10/23 10:53:04;;;;;;;5.65;2.17;;;;;;;;;;6254332;23;20011;-95
2023/10/23 10:55:30;;;;;;;20.57;14.37;;;;;;;;;;6253039;23;20020;-93
2023/10/23 10:57:57;;;;;;;2.83;2.20;;;;;;;;;;6255002;23;20321;-94
2023/10/23 11:00:23;;;;;;;2.88;2.20;;;;;;;;;;6247892;23;20091;-95
2023/10/23 11:02:48;;;;;;;3.58;2.47;;;;;;;;;;6248348;23;20434;-96
2023/10/23 11:05:14;;;;;;;3.67;2.08;;;;;;;;;;6248608;23;20323;-94
2023/10/23 11:07:40;;;;;;;4.22;2.50;;;;;;;;;;6247084;23;20000;-94
2023/10/23 11:10:06;;;;;;;4.00;2.50;;;;;;;;;;6247127;23;20043;-94
2023/10/23 11:12:32;;;;;;;7.88;2.50;;;;;;;;;;6247355;23;20431;-95
2023/10/23 11:14:58;;;;;;;5.45;2.30;;;;;;;;;;6249622;23;20008;-95
2023/10/23 11:17:23;;;;;;;4.63;2.22;;;;;;;;;;6252502;23;20450;-95
2023/10/23 11:19:49;;;;;;;4.18;2.13;;;;;;;;;;6248462;23;20062;-96
2023/10/23 11:22:17;;;;;;;4.22;2.10;;;;;;;;;;6247714;23;20008;-95
2023/10/23 11:24:43;;;;;;;3.95;2.40;;;;;;;;;;6222976;23;20008;-95
2023/10/23 11:27:09;;;;;;;4.65;2.30;;;;;;;;;;6248182;23;20061;-96
2023/10/23 11:29:43;;;;;;;3.97;2.45;;;;;;;;;;6248757;23;20454;-95
2023/10/23 11:32:11;;;;;;;2.67;2.22;;;;;;;;;;6247571;23;20066;-92
2023/10/23 11:34:37;;;;;;;4.35;2.55;;;;;;;;;;6247229;23;20090;-94
2023/10/23 11:37:08;;;;;;;9.27;2.70;;;;;;;;;;6248473;22;20001;-90
2023/10/23 11:39:35;;;;;;;4.38;2.28;;;;;;;;;;6246418;23;20000;-90
2023/10/23 11:42:02;;;;;;;6.63;2.50;;;;;;;;;;6247901;22;19999;-89
2023/10/23 11:44:30;;;;;;;4.18;2.55;;;;;;;;;;6246470;23;20439;-90
2023/10/23 11:46:58;;;;;;;3.40;2.20;;;;;;;;;;6247202;23;20016;-91
2023/10/23 16:43:08;;;;;;;8.82;2.97;;;;;;;;;;6256219;22;20031;-92
2023/10/23 16:45:33;;;;;;;3.03;2.40;;;;;;;;;;6253410;22;20012;-92
2023/10/23 16:47:59;;;;;;;3.75;2.50;;;;;;;;;;6279820;22;20023;-93
2023/10/23 16:50:25;;;;;;;5.82;2.40;;;;;;;;;;6253770;22;20381;-91
2023/10/23 16:52:50;;;;;;;3.40;2.10;;;;;;;;;;6228050;22;20007;-91
2023/10/23 16:55:16;;;;;;;6.47;4.20;;;;;;;;;;6254115;22;20014;-92
2023/10/23 16:57:43;;;;;;;6.57;3.67;;;;;;;;;;6251416;22;20138;-92
2023/10/23 17:00:13;;;;;;;7.85;3.65;;;;;;;;;;6250838;22;19995;-91
2023/10/23 17:02:39;;;;;;;3.35;3.00;;;;;;;;;;6251154;22;20010;-92
2023/10/23 17:05:05;;;;;;;4.43;2.88;;;;;;;;;;6251200;22;19999;-92
2023/10/23 17:07:31;;;;;;;6.03;2.85;;;;;;;;;;6252236;22;20004;-91
2023/10/23 17:09:58;;;;;;;5.18;2.78;;;;;;;;;;6251324;22;20330;-87
2023/10/23 17:12:24;;;;;;;3.65;2.60;;;;;;;;;;6251249;22;20004;-88
2023/10/23 17:14:49;;;;;;;6.22;2.75;;;;;;;;;;6250130;22;20030;-91
2023/10/23 17:17:15;;;;;;;6.07;3.55;;;;;;;;;;6250736;22;20010;-87
2023/10/23 17:19:43;;;;;;;6.05;2.88;;;;;;;;;;6277204;22;20010;-87
2023/10/23 17:22:08;;;;;;;6.53;3.30;;;;;;;;;;6249966;22;20004;-85
2023/10/23 17:24:35;;;;;;;5.65;3.20;;;;;;;;;;6277426;22;20000;-87
2023/10/23 17:27:00;;;;;;;5.55;3.10;;;;;;;;;;6277121;22;20000;-87
2023/10/23 17:29:26;;;;;;;7.43;3.38;;;;;;;;;;6276719;22;20010;-86
2023/10/23 17:31:51;;;;;;;6.03;3.00;;;;;;;;;;6277205;22;20007;-85
2023/10/23 17:34:17;;;;;;;7.32;3.55;;;;;;;;;;6278681;22;20069;-87
2023/10/23 17:36:42;;;;;;;3.92;3.00;;;;;;;;;;6252510;22;20367;-89
2023/10/23 17:39:07;;;;;;;3.75;3.20;;;;;;;;;;6253593;22;20334;-88
2023/10/23 17:41:33;;;;;;;5.70;2.83;;;;;;;;;;6279661;22;20582;-87
2023/10/23 17:43:58;;;;;;;4.78;2.90;;;;;;;;;;6279040;22;20082;-89
2023/10/23 17:46:24;;;;;;;4.85;3.40;;;;;;;;;;6279058;22;20007;-86
2023/10/23 17:48:51;;;;;;;5.32;3.00;;;;;;;;;;6278899;22;20057;-87
2023/10/23 17:51:16;;;;;;;6.90;3.38;;;;;;;;;;6279031;22;20011;-88
2023/10/23 17:53:44;;;;;;;6.07;3.42;;;;;;;;;;6251826;22;20033;-87
2023/10/23 17:56:10;;;;;;;4.32;2.72;;;;;;;;;;6251523;22;20015;-85
2023/10/23 17:58:36;;;;;;;4.13;3.00;;;;;;;;;;6279177;22;20007;-88
2023/10/23 18:01:09;;;;;;;6.30;2.72;;;;;;;;;;6251506;22;19996;-86
2023/10/23 18:03:35;;;;;;;4.97;2.88;;;;;;;;;;6278510;22;20023;-90
2023/10/23 18:06:02;;;;;;;6.20;3.22;;;;;;;;;;6251638;22;20377;-88
2023/10/23 18:08:29;;;;;;;5.35;3.50;;;;;;;;;;6252173;22;20049;-87
2023/10/23 18:10:55;;;;;;;5.85;3.72;;;;;;;;;;6252731;22;20007;-90
2023/10/23 18:13:20;;;;;;;7.07;3.83;;;;;;;;;;6279560;22;20114;-90
2023/10/23 18:15:46;;;;;;;4.93;3.42;;;;;;;;;;6280389;22;20122;-89
2023/10/23 18:18:11;;;;;;;7.93;3.03;;;;;;;;;;6280866;22;20445;-89
2023/10/23 18:20:37;;;;;;;6.82;3.47;;;;;;;;;;6281278;22;20008;-88
2023/10/23 18:23:03;;;;;;;6.25;2.95;;;;;;;;;;6284034;22;20406;-88
2023/10/23 18:25:29;;;;;;;4.97;3.05;;;;;;;;;;6290156;22;20015;-89
2023/10/23 18:27:55;;;;;;;5.55;2.80;;;;;;;;;;6287435;22;20004;-87
2023/10/23 18:30:20;;;;;;;4.95;2.83;;;;;;;;;;6258023;22;20078;-86
2023/10/23 18:32:47;;;;;;;6.60;3.75;;;;;;;;;;6258386;22;20035;-86
2023/10/23 18:35:14;;;;;;;6.40;2.90;;;;;;;;;;6255083;22;20010;-86
2023/10/23 18:37:39;;;;;;;4.30;3.25;;;;;;;;;;6282570;22;20053;-84
2023/10/23 18:40:05;;;;;;;6.70;3.38;;;;;;;;;;6281693;22;20075;-85
2023/10/23 18:42:35;;;;;;;3.90;2.90;;;;;;;;;;6256967;22;20008;-86
2023/10/23 18:45:04;;;;;;;5.82;2.85;;;;;;;;;;6257803;22;20390;-87
2023/10/23 18:47:33;;;;;;;7.85;3.00;;;;;;;;;;6281080;22;20000;-86
2023/10/23 18:50:00;;;;;;;4.25;2.72;;;;;;;;;;6280210;22;20001;-85
2023/10/23 18:52:26;;;;;;;8.85;6.05;;;;;;;;;;6252857;22;20026;-87
2023/10/23 18:54:52;;;;;;;5.43;3.80;;;;;;;;;;6280513;22;20032;-87
2023/10/23 18:57:17;;;;;;;7.43;3.83;;;;;;;;;;6280769;22;20008;-87
2023/10/23 18:59:45;;;;;;;6.30;4.45;;;;;;;;;;6253439;22;20014;-88
2023/10/23 19:02:11;;;;;;;7.47;4.50;;;;;;;;;;6280571;22;20019;-87
2023/10/23 19:04:36;;;;;;;9.18;4.22;;;;;;;;;;6255066;22;20019;-86
2023/10/23 19:07:02;;;;;;;7.78;4.90;;;;;;;;;;6253559;22;19999;-89
2023/10/23 19:09:27;;;;;;;8.88;5.18;;;;;;;;;;6280730;22;20057;-87
2023/10/23 19:11:53;;;;;;;9.98;5.53;;;;;;;;;;6253105;22;20050;-87
2023/10/23 19:14:19;;;;;;;10.82;6.75;;;;;;;;;;6253693;22;19999;-89
2023/10/23 19:16:44;;;;;;;11.50;5.65;;;;;;;;;;6280006;22;20327;-88
2023/10/23 19:19:10;;;;;;;7.28;5.45;;;;;;;;;;6252473;22;19998;-86
2023/10/23 19:21:35;;;;;;;7.13;4.88;;;;;;;;;;6280777;22;20000;-89
2023/10/23 19:24:01;;;;;;;7.40;4.75;;;;;;;;;;6254792;22;20004;-89
2023/10/23 19:26:27;;;;;;;7.60;5.32;;;;;;;;;;6254714;22;20008;-89
2023/10/23 19:28:52;;;;;;;10.80;5.43;;;;;;;;;;6254779;22;20030;-89
2023/10/23 19:31:21;;;;;;;8.63;5.05;;;;;;;;;;6254109;22;20011;-86
2023/10/23 19:33:47;;;;;;;8.27;5.18;;;;;;;;;;6255168;22;20338;-89
2023/10/23 19:36:13;;;;;;;8.18;5.60;;;;;;;;;;6282068;22;20036;-90
2023/10/23 19:38:41;;;;;;;8.15;4.60;;;;;;;;;;6255945;22;20067;-93
2023/10/23 19:41:11;;;;;;;7.78;5.07;;;;;;;;;;6255162;22;20030;-93
2023/10/23 19:43:48;;;;;;;6.55;5.00;;;;;;;;;;6281914;22;20067;-92
2023/10/23 19:46:18;;;;;;;11.38;5.70;;;;;;;;;;6281778;22;20003;-91
2023/10/23 19:48:44;;;;;;;;;;;;;;;;;;6254714;22;20206;-90
2023/10/23 19:51:16;;;;;;;11.52;5.15;;;;;;;;;;6254263;22;19913;-91
2023/10/23 19:53:42;;;;;;;7.38;5.40;;;;;;;;;;6254696;22;20008;-92
2023/10/23 19:56:08;;;;;;;10.10;5.60;;;;;;;;;;6281790;22;20038;-91
2023/10/23 19:58:34;;;;;;;8.75;5.75;;;;;;;;;;6255277;22;20007;-89
2023/10/23 20:01:00;;;;;;;9.68;6.25;;;;;;;;;;6255007;22;20008;-89
2023/10/23 20:03:26;;;;;;;8.23;6.03;;;;;;;;;;6254711;22;20007;-89
2023/10/23 20:05:54;;;;;;;9.20;5.55;;;;;;;;;;6254525;22;20004;-89
2023/10/23 20:08:20;;;;;;;7.80;5.88;;;;;;;;;;6281596;22;20050;-89
2023/10/23 20:10:46;;;;;;;9.23;6.47;;;;;;;;;;6253970;22;20031;-87
2023/10/23 20:13:11;;;;;;;6.63;5.40;;;;;;;;;;6279641;22;20323;-87
2023/10/23 20:15:36;;;;;;;9.43;5.25;;;;;;;;;;6279324;22;20328;-88
2023/10/23 20:18:02;;;;;;;10.40;6.95;;;;;;;;;;6252335;22;20431;-87
2023/10/23 20:20:27;;;;;;;9.48;6.25;;;;;;;;;;6251811;22;20094;-88
2023/10/23 20:22:53;;;;;;;12.07;7.35;;;;;;;;;;6279213;22;20019;-87
2023/10/23 20:25:18;;;;;;;8.60;6.32;;;;;;;;;;6279194;22;20000;-87
2023/10/23 20:27:44;;;;;;;9.77;6.53;;;;;;;;;;6280009;22;20457;-88
2023/10/23 20:30:11;;;;;;;9.85;7.60;;;;;;;;;;6279760;22;20415;-88
2023/10/23 20:32:37;;;;;;;12.63;7.55;;;;;;;;;;6227584;22;20018;-87
2023/10/23 20:35:04;;;;;;;10.75;6.65;;;;;;;;;;6252468;22;20003;-88
2023/10/23 20:37:33;;;;;;;8.43;7.20;;;;;;;;;;6279639;22;20067;-88
2023/10/23 20:40:00;;;;;;;9.73;8.40;;;;;;;;;;6252402;22;20395;-88
2023/10/23 20:42:31;;;;;;;13.32;9.48;;;;;;;;;;6252394;22;20003;-88
2023/10/23 20:44:57;;;;;;;11.23;8.82;;;;;;;;;;6227242;22;20508;-87
2023/10/23 20:47:22;;;;;;;11.50;9.15;;;;;;;;;;6279830;22;20004;-87
2023/10/23 20:49:48;;;;;;;10.75;8.23;;;;;;;;;;6279574;22;20014;-87
2023/10/23 20:52:13;;;;;;;15.73;8.90;;;;;;;;;;6252355;22;20458;-87
2023/10/23 20:54:39;;;;;;;12.02;8.68;;;;;;;;;;6279406;22;20327;-86
2023/10/23 20:57:04;;;;;;;10.93;8.15;;;;;;;;;;6279105;22;20031;-87
2023/10/23 20:59:29;;;;;;;12.15;7.75;;;;;;;;;;6278295;22;20000;-86
2023/10/23 21:01:55;;;;;;;9.45;7.53;;;;;;;;;;6278021;22;20004;-87
2023/10/23 21:04:20;;;;;;;10.93;8.80;;;;;;;;;;6278473;22;20011;-87
2023/10/23 21:06:46;;;;;;;12.27;8.27;;;;;;;;;;6278315;22;20036;-87
2023/10/23 21:09:11;;;;;;;13.45;8.77;;;;;;;;;;6252415;22;20000;-86
2023/10/23 21:11:37;;;;;;;15.55;9.45;;;;;;;;;;6253193;22;20008;-87
2023/10/23 21:14:02;;;;;;;16.65;10.82;;;;;;;;;;6280725;22;20000;-86
2023/10/23 21:16:28;;;;;;;14.27;9.35;;;;;;;;;;6280806;22;19996;-87
2023/10/23 21:18:54;;;;;;;10.95;9.27;;;;;;;;;;6253918;22;20086;-87
2023/10/23 21:21:20;;;;;;;11.60;9.20;;;;;;;;;;6280210;22;20011;-88
2023/10/23 21:23:45;;;;;;;11.18;9.20;;;;;;;;;;6280220;22;20427;-87
2023/10/23 21:26:10;;;;;;;13.20;9.90;;;;;;;;;;6280527;22;20292;-87
2023/10/23 21:28:36;;;;;;;11.85;9.52;;;;;;;;;;6280921;22;20022;-87
2023/10/23 21:31:01;;;;;;;11.82;9.05;;;;;;;;;;6253318;22;20053;-87
2023/10/23 21:33:28;;;;;;;11.10;9.10;;;;;;;;;;6253738;22;20008;-87
2023/10/23 21:35:53;;;;;;;10.85;8.63;;;;;;;;;;6253845;22;20008;-87
2023/10/23 21:38:19;;;;;;;10.15;7.53;;;;;;;;;;6280756;22;20082;-87
2023/10/23 21:40:46;;;;;;;9.85;7.65;;;;;;;;;;6280886;22;20004;-88
2023/10/23 21:43:11;;;;;;;11.50;8.82;;;;;;;;;;6252804;22;20069;-88
2023/10/23 21:45:38;;;;;;;11.32;9.00;;;;;;;;;;6251959;22;20008;-86
2023/10/23 21:48:03;;;;;;;12.13;9.68;;;;;;;;;;6251748;22;20004;-89
2023/10/23 21:50:29;;;;;;;11.35;8.93;;;;;;;;;;6251803;22;20086;-86
2023/10/23 21:52:55;;;;;;;13.75;9.45;;;;;;;;;;6252155;22;20496;-88
2023/10/23 21:55:23;;;;;;;10.32;8.77;;;;;;;;;;6251954;22;20008;-87
2023/10/23 21:57:52;;;;;;;10.75;8.63;;;;;;;;;;6251761;22;20007;-87
